Time;durP1;ratioP1;P1;durP2;ratioP2;P2;SDS_P1;SDS_P2;PMS_P1;PMS_P2;Temp;Humidity;BMP_temperature;BMP_pressure;BME280_temperature;BME280_humidity;BME280_pressure;Samples;Min_cycle;Max_cycle;Signal;HPM_P1;HPM_P2
2023/10/05 00:02:10;;;;;;;14.45;2.40;;;13.90;86.50;;;;;;5053324;28;20051;-48
2023/10/05 00:04:44;;;;;;;7.43;2.50;;;13.80;86.60;;;;;;5052130;28;20040;-48
2023/10/05 00:07:26;;;;;;;11.15;3.08;;;13.90;86.60;;;;;;5036735;28;20056;-50
2023/10/05 00:09:57;;;;;;;11.57;3.53;;;13.70;86.70;;;;;;5052378;28;20489;-52
2023/10/05 00:12:22;;;;;;;8.18;2.15;;;13.80;86.80;;;;;;5051838;28;20064;-54
2023/10/05 00:15:14;;;;;;;10.90;3.42;;;13.70;86.90;;;;;;5051191;28;20053;-50
2023/10/05 00:17:43;;;;;;;7.63;2.90;;;13.80;87.00;;;;;;5039547;28;20021;-53
2023/10/05 00:20:13;;;;;;;10.07;2.63;;;13.80;87.00;;;;;;5049583;28;20029;-50
2023/10/05 00:22:42;;;;;;;8.52;2.70;;;13.80;86.90;;;;;;5054071;28;20025;-49
2023/10/05 00:25:10;;;;;;;8.35;2.35;;;13.80;86.90;;;;;;5052571;28;20032;-52
2023/10/05 00:27:36;;;;;;;9.30;3.15;;;13.80;86.90;;;;;;5053585;28;20017;-48
2023/10/05 00:30:16;;;;;;;8.40;2.38;;;13.80;86.70;;;;;;5053068;28;20363;-51
2023/10/05 00:32:48;;;;;;;7.22;2.38;;;13.80;86.90;;;;;;5052404;28;20051;-49
2023/10/05 00:35:49;;;;;;;13.20;3.55;;;13.80;86.80;;;;;;5045007;28;20029;-51
2023/10/05 00:38:16;;;;;;;8.27;2.15;;;13.80;87.00;;;;;;5050034;28;20494;-53
2023/10/05 00:41:04;;;;;;;10.98;3.10;;;13.80;86.90;;;;;;5046194;28;20034;-54
2023/10/05 00:43:32;;;;;;;;;;;13.80;87.00;;;;;;5049870;28;20061;-54
2023/10/05 00:45:58;;;;;;;6.18;2.50;;;13.80;87.10;;;;;;5056547;28;19916;-51
2023/10/05 00:48:55;;;;;;;5.10;2.40;;;13.80;87.20;;;;;;5092838;28;20487;-53
2023/10/05 00:51:32;;;;;;;8.75;2.95;;;13.80;87.00;;;;;;5092043;28;20445;-50
2023/10/05 00:54:03;;;;;;;10.50;2.88;;;13.90;87.20;;;;;;5090039;28;20109;-55
2023/10/05 00:56:35;;;;;;;9.13;2.97;;;13.90;87.20;;;;;;5087752;28;20034;-52
2023/10/05 00:59:06;;;;;;;8.05;2.38;;;13.80;87.20;;;;;;5092718;28;20028;-50
2023/10/05 01:02:21;;;;;;;9.73;2.65;;;13.90;87.00;;;;;;5092945;28;20468;-48
2023/10/05 01:14:59;;;;;;;13.30;2.88;;;13.70;87.20;;;;;;5093022;28;20020;-50
2023/10/05 01:17:27;;;;;;;8.93;3.05;;;13.70;87.20;;;;;;5093336;28;20110;-50
2023/10/05 01:20:29;;;;;;;11.02;3.38;;;13.80;87.40;;;;;;5090018;28;20051;-49
2023/10/05 01:22:50;;;;;;;8.93;1.92;;;13.70;87.50;;;;;;5069842;28;20032;-54
2023/10/05 01:25:15;;;;;;;7.93;3.17;;;13.70;87.60;;;;;;5052127;28;20043;-53
2023/10/05 01:27:50;;;;;;;6.93;2.50;;;13.70;87.60;;;;;;5093050;28;20035;-51
2023/10/05 01:30:19;;;;;;;12.80;2.58;;;13.70;87.60;;;;;;5087697;28;20036;-51
2023/10/05 01:32:47;;;;;;;9.23;2.57;;;13.60;87.60;;;;;;5086719;28;20032;-53
2023/10/05 01:35:17;;;;;;;8.75;2.65;;;13.60;87.60;;;;;;5042804;28;20271;-53
2023/10/05 01:37:44;;;;;;;10.73;2.45;;;13.60;87.70;;;;;;5071997;28;20047;-53
2023/10/05 01:42:46;;;;;;;11.27;3.00;;;13.50;87.90;;;;;;5081854;28;20093;-49
2023/10/05 01:45:23;;;;;;;7.53;2.47;;;13.60;88.10;;;;;;5073740;28;20089;-51
2023/10/05 01:47:51;;;;;;;8.73;2.63;;;13.50;88.10;;;;;;5096188;28;20122;-50
2023/10/05 01:50:26;;;;;;;10.98;3.00;;;13.50;88.20;;;;;;5099245;28;20035;-48
2023/10/05 01:53:01;;;;;;;9.35;2.92;;;13.50;88.30;;;;;;5092756;28;20028;-51
2023/10/05 01:55:34;;;;;;;7.93;2.40;;;13.50;88.40;;;;;;5091657;28;20035;-48
2023/10/05 01:58:06;;;;;;;20.73;4.30;;;13.50;88.40;;;;;;5093008;28;20078;-51
2023/10/05 02:00:44;;;;;;;12.98;3.20;;;13.50;88.60;;;;;;5092307;28;20084;-47
2023/10/05 02:03:12;;;;;;;6.47;2.67;;;13.40;88.70;;;;;;5072551;28;20422;-53
2023/10/05 02:05:38;;;;;;;10.57;3.58;;;13.40;88.60;;;;;;5085158;28;20066;-50
2023/10/05 02:08:08;;;;;;;6.75;2.55;;;13.40;88.70;;;;;;5092398;28;20068;-50
2023/10/05 02:10:39;;;;;;;;;;;13.50;88.70;;;;;;5084969;28;20071;-52
2023/10/05 02:13:12;;;;;;;10.63;3.35;;;13.50;88.70;;;;;;5091652;28;19916;-47
2023/10/05 02:15:40;;;;;;;7.40;2.80;;;13.40;88.70;;;;;;5092089;28;20033;-50
2023/10/05 02:18:26;;;;;;;16.65;2.92;;;13.40;88.70;;;;;;5091554;28;20031;-50
2023/10/05 02:23:51;;;;;;;11.30;3.05;;;13.40;88.80;;;;;;5096753;28;20130;-53
2023/10/05 02:26:33;;;;;;;7.55;2.47;;;13.40;88.80;;;;;;5094206;28;20036;-51
2023/10/05 02:29:16;;;;;;;13.48;3.67;;;13.30;89.00;;;;;;5096491;28;20113;-50
2023/10/05 02:32:10;;;;;;;6.43;2.83;;;13.30;89.10;;;;;;5096145;28;20107;-47
2023/10/05 02:37:24;;;;;;;11.73;3.20;;;13.30;89.30;;;;;;5070551;28;20085;-53
2023/10/05 02:39:50;;;;;;;9.63;3.92;;;13.20;89.30;;;;;;5086157;28;20061;-53
2023/10/05 02:42:22;;;;;;;7.30;2.55;;;13.20;89.40;;;;;;5060612;28;20033;-53
2023/10/05 02:44:53;;;;;;;12.02;3.20;;;13.20;89.60;;;;;;5076189;28;20319;-52
2023/10/05 02:47:31;;;;;;;12.45;3.20;;;13.20;89.60;;;;;;5083787;28;20048;-51
2023/10/05 02:50:01;;;;;;;7.60;3.13;;;13.20;89.60;;;;;;5085973;28;20036;-50
2023/10/05 02:52:32;;;;;;;10.45;3.95;;;13.10;89.90;;;;;;5095665;28;20149;-54
2023/10/05 02:54:59;;;;;;;13.02;3.20;;;13.10;89.90;;;;;;5078527;28;20028;-49
2023/10/05 02:57:26;;;;;;;6.38;2.53;;;13.20;90.00;;;;;;5076990;28;20028;-54
2023/10/05 02:59:54;;;;;;;7.60;3.13;;;13.20;89.90;;;;;;5085204;28;20103;-51
2023/10/05 03:02:23;;;;;;;7.40;2.65;;;13.20;89.90;;;;;;5095920;28;20034;-51
2023/10/05 03:04:58;;;;;;;10.20;3.15;;;13.20;90.00;;;;;;5094696;28;20063;-53
2023/10/05 03:07:35;;;;;;;10.88;2.95;;;13.20;90.00;;;;;;5090942;28;20032;-53
2023/10/05 03:10:04;;;;;;;12.88;3.05;;;13.20;89.90;;;;;;5083238;28;20039;-50
2023/10/05 03:12:32;;;;;;;9.50;3.78;;;13.20;90.00;;;;;;5095538;28;20479;-54
2023/10/05 03:15:04;;;;;;;7.50;2.72;;;13.20;89.90;;;;;;5076216;28;20020;-52
2023/10/05 03:17:32;;;;;;;7.38;2.80;;;13.20;90.10;;;;;;5094098;28;20102;-52
2023/10/05 03:20:00;;;;;;;12.90;3.53;;;13.20;90.00;;;;;;5079222;28;20035;-48
2023/10/05 03:22:25;;;;;;;8.05;3.33;;;13.20;90.10;;;;;;5095448;28;20047;-51
2023/10/05 03:24:56;;;;;;;14.10;4.55;;;13.20;90.20;;;;;;5077939;28;20404;-54
2023/10/05 03:27:26;;;;;;;10.18;2.40;;;13.20;90.20;;;;;;5093678;28;20681;-50
2023/10/05 03:29:59;;;;;;;7.63;3.35;;;13.10;90.30;;;;;;5092566;28;20032;-51
2023/10/05 03:32:35;;;;;;;8.80;2.80;;;13.10;90.40;;;;;;5088019;28;20602;-49
2023/10/05 03:35:08;;;;;;;13.27;3.28;;;13.10;90.40;;;;;;5090219;28;20034;-51
2023/10/05 03:37:45;;;;;;;11.20;3.53;;;13.10;90.50;;;;;;5087393;28;20770;-52
2023/10/05 03:40:24;;;;;;;9.73;2.90;;;13.10;90.50;;;;;;5095045;28;20028;-53
2023/10/05 03:43:00;;;;;;;9.43;3.00;;;13.10;90.50;;;;;;5088890;28;20044;-53
2023/10/05 03:45:28;;;;;;;9.13;2.20;;;13.10;90.60;;;;;;5089669;28;20038;-50
2023/10/05 03:48:05;;;;;;;10.75;3.28;;;13.20;90.60;;;;;;5094432;28;20097;-54
2023/10/05 03:50:32;;;;;;;9.05;2.70;;;13.20;90.70;;;;;;5094005;28;20074;-53
2023/10/05 03:53:01;;;;;;;10.90;3.35;;;13.20;90.60;;;;;;5088884;28;20471;-53
2023/10/05 03:55:29;;;;;;;9.50;3.15;;;13.20;90.80;;;;;;5076433;28;20092;-52
2023/10/05 03:57:54;;;;;;;10.57;2.78;;;13.30;90.70;;;;;;5088970;28;20459;-48
2023/10/05 04:02:52;;;;;;;9.23;2.88;;;13.30;90.80;;;;;;5066131;28;20472;-53
2023/10/05 04:05:22;;;;;;;13.43;4.03;;;13.40;90.70;;;;;;5075815;28;20430;-54
2023/10/05 04:07:52;;;;;;;8.40;3.05;;;13.40;90.60;;;;;;5088667;28;20039;-50
2023/10/05 04:10:34;;;;;;;15.13;2.83;;;13.40;90.60;;;;;;5077029;28;20040;-51
2023/10/05 04:13:05;;;;;;;11.88;3.42;;;13.40;90.60;;;;;;5074665;28;20024;-49
2023/10/05 04:15:33;;;;;;;9.52;3.03;;;13.40;90.60;;;;;;5090502;28;20032;-52
2023/10/05 04:18:02;;;;;;;7.45;3.30;;;13.50;90.60;;;;;;5074206;28;20514;-51
2023/10/05 04:20:29;;;;;;;12.82;3.80;;;13.50;90.50;;;;;;5075214;28;20088;-52
2023/10/05 04:22:56;;;;;;;12.43;3.28;;;13.40;90.60;;;;;;5094527;28;20039;-50
2023/10/05 04:25:24;;;;;;;14.00;4.20;;;13.40;90.60;;;;;;5093594;28;20035;-48
2023/10/05 04:27:53;;;;;;;8.75;3.63;;;13.40;90.70;;;;;;5073300;28;20040;-51
2023/10/05 04:30:21;;;;;;;15.02;4.28;;;13.40;90.80;;;;;;5085936;28;20040;-46
2023/10/05 04:32:48;;;;;;;11.85;3.22;;;13.40;90.90;;;;;;5076351;28;20123;-50
2023/10/05 04:35:44;;;;;;;10.48;3.10;;;13.40;91.00;;;;;;5082328;28;20055;-50
2023/10/05 04:38:03;;;;;;;13.57;3.45;;;13.40;91.00;;;;;;5073287;28;20047;-49
2023/10/05 04:40:34;;;;;;;17.33;2.92;;;13.40;91.00;;;;;;5079426;28;20463;-48
2023/10/05 04:43:04;;;;;;;11.63;3.75;;;13.40;91.10;;;;;;5087463;28;20354;-49
2023/10/05 04:45:42;;;;;;;12.65;3.47;;;13.40;91.10;;;;;;5093359;28;20034;-50
2023/10/05 04:48:12;;;;;;;11.30;2.92;;;13.50;91.20;;;;;;5093785;28;20059;-50
2023/10/05 04:50:49;;;;;;;11.40;3.63;;;13.40;91.20;;;;;;5082967;28;20442;-49
2023/10/05 04:53:15;;;;;;;11.40;3.50;;;13.40;91.30;;;;;;5077798;28;20560;-50
2023/10/05 04:55:43;;;;;;;9.68;3.22;;;13.40;91.50;;;;;;5093727;28;20098;-45
2023/10/05 04:59:19;;;;;;;7.80;3.22;;;13.50;91.50;;;;;;5092792;28;20166;-44
2023/10/05 05:01:28;;;;;;;10.25;3.72;;;13.50;91.60;;;;;;5079919;28;20445;-47
2023/10/05 05:07:09;;;;;;;9.32;3.28;;;13.50;92.10;;;;;;5039601;28;20112;-48
2023/10/05 05:09:42;;;;;;;20.65;4.22;;;13.50;92.20;;;;;;5067365;28;20038;-48
2023/10/05 05:12:16;;;;;;;19.25;4.55;;;13.50;92.40;;;;;;5074852;28;20123;-52
2023/10/05 05:14:45;;;;;;;15.50;3.83;;;13.50;92.50;;;;;;5082337;28;20441;-50
2023/10/05 05:17:19;;;;;;;15.93;4.32;;;13.40;92.70;;;;;;5091946;28;20085;-47
2023/10/05 05:19:46;;;;;;;9.48;3.08;;;13.40;92.80;;;;;;5080345;28;20044;-46
2023/10/05 05:22:13;;;;;;;12.40;4.25;;;13.40;92.90;;;;;;5073006;28;20028;-48
2023/10/05 05:24:43;;;;;;;15.27;3.92;;;13.40;92.90;;;;;;5093105;28;20073;-46
2023/10/05 05:27:20;;;;;;;16.70;4.75;;;13.40;93.10;;;;;;5092253;28;20016;-50
2023/10/05 05:29:55;;;;;;;17.77;4.20;;;13.40;93.10;;;;;;5076042;28;20656;-44
2023/10/05 05:32:22;;;;;;;21.65;5.75;;;13.40;93.30;;;;;;5088508;28;20028;-45
2023/10/05 05:34:56;;;;;;;11.77;3.05;;;13.40;93.30;;;;;;5091947;28;20024;-47
2023/10/05 05:37:28;;;;;;;14.55;4.22;;;13.40;93.50;;;;;;5092077;28;20070;-48
2023/10/05 05:40:12;;;;;;;16.77;4.68;;;13.50;93.50;;;;;;5072700;28;20454;-50
2023/10/05 05:42:45;;;;;;;13.30;4.05;;;13.50;93.60;;;;;;5091666;28;20032;-54
2023/10/05 05:45:17;;;;;;;15.75;4.75;;;13.50;93.50;;;;;;5089149;28;20095;-49
2023/10/05 05:47:48;;;;;;;17.00;5.38;;;13.50;93.70;;;;;;5091445;28;20087;-53
2023/10/05 05:50:29;;;;;;;14.35;3.60;;;13.50;93.70;;;;;;5091155;28;20457;-52
2023/10/05 05:52:58;;;;;;;12.90;3.80;;;13.50;93.80;;;;;;5088900;28;20027;-51
2023/10/05 05:55:26;;;;;;;18.73;4.67;;;13.50;93.90;;;;;;5091895;28;20387;-47
2023/10/05 05:57:55;;;;;;;12.63;3.97;;;13.50;94.00;;;;;;5092090;28;20028;-46
2023/10/05 06:00:33;;;;;;;15.73;4.43;;;13.50;94.00;;;;;;5091518;28;20032;-48
2023/10/05 06:02:59;;;;;;;20.30;4.95;;;13.40;94.10;;;;;;5087515;28;20107;-47
2023/10/05 06:05:25;;;;;;;14.32;3.92;;;13.50;94.30;;;;;;5091751;28;20119;-48
2023/10/05 06:07:55;;;;;;;15.35;5.03;;;13.50;94.50;;;;;;5086442;28;20119;-51
2023/10/05 06:10:28;;;;;;;15.05;4.45;;;13.60;94.60;;;;;;5090113;28;20051;-51
2023/10/05 06:12:58;;;;;;;21.25;5.25;;;13.60;94.60;;;;;;5087157;28;20095;-50
2023/10/05 06:15:24;;;;;;;19.23;5.32;;;13.60;94.50;;;;;;5075872;28;20441;-50
2023/10/05 06:17:52;;;;;;;15.00;4.90;;;13.70;94.60;;;;;;5089821;28;20024;-49
2023/10/05 06:20:19;;;;;;;8.38;3.72;;;13.70;94.60;;;;;;5090770;28;20357;-49
2023/10/05 06:22:50;;;;;;;10.32;4.70;;;13.70;94.50;;;;;;5088405;28;20395;-49
2023/10/05 06:25:20;;;;;;;11.73;3.80;;;13.70;94.50;;;;;;5085003;28;20036;-53
2023/10/05 06:27:52;;;;;;;13.32;3.95;;;13.80;94.60;;;;;;5068340;28;20086;-52
2023/10/05 06:30:21;;;;;;;12.82;4.10;;;13.80;94.70;;;;;;5085194;28;20028;-50
2023/10/05 06:32:47;;;;;;;11.27;3.97;;;13.80;94.70;;;;;;5084682;28;20055;-46
2023/10/05 06:35:17;;;;;;;10.55;3.60;;;13.80;94.70;;;;;;5089605;28;20517;-46
2023/10/05 06:37:44;;;;;;;17.08;4.22;;;13.80;94.70;;;;;;5081256;28;20033;-51
2023/10/05 06:40:12;;;;;;;11.40;4.53;;;13.80;94.70;;;;;;5091310;28;20032;-50
2023/10/05 06:42:44;;;;;;;11.43;4.03;;;13.90;94.80;;;;;;5092121;28;20350;-47
2023/10/05 06:45:11;;;;;;;11.15;3.50;;;13.90;94.80;;;;;;5090401;28;20119;-46
2023/10/05 06:47:39;;;;;;;9.55;4.20;;;13.90;94.80;;;;;;5068918;28;20071;-54
2023/10/05 06:50:08;;;;;;;12.82;4.40;;;13.90;94.90;;;;;;5043825;28;20037;-54
2023/10/05 06:52:42;;;;;;;17.80;5.15;;;14.00;94.90;;;;;;5046319;28;20072;-57
2023/10/05 06:55:12;;;;;;;13.48;3.85;;;13.90;94.90;;;;;;5042447;28;20430;-55
2023/10/05 06:57:44;;;;;;;9.23;3.38;;;13.90;95.00;;;;;;5046163;28;20057;-56
2023/10/05 07:00:20;;;;;;;10.60;3.30;;;13.90;95.10;;;;;;5049715;28;20185;-52
2023/10/05 07:02:53;;;;;;;10.82;3.60;;;13.80;95.20;;;;;;5040176;28;20056;-52
2023/10/05 07:05:20;;;;;;;9.50;3.20;;;13.90;95.30;;;;;;5050424;28;20403;-52
2023/10/05 07:07:48;;;;;;;9.82;3.13;;;13.90;95.40;;;;;;5052698;28;20032;-53
2023/10/05 07:10:15;;;;;;;8.13;2.90;;;13.90;95.50;;;;;;5053510;28;20037;-53
2023/10/05 07:12:46;;;;;;;18.73;4.50;;;13.90;95.60;;;;;;5070672;28;20060;-49
2023/10/05 07:15:17;;;;;;;10.82;3.53;;;14.00;95.60;;;;;;5054979;28;20025;-50
2023/10/05 07:17:48;;;;;;;8.85;3.35;;;14.00;95.80;;;;;;5054107;28;20037;-48
2023/10/05 07:20:18;;;;;;;8.40;2.90;;;14.10;95.80;;;;;;5040837;28;20072;-50
2023/10/05 07:22:48;;;;;;;;;;;14.20;95.80;;;;;;5035636;28;20033;-49
2023/10/05 07:25:19;;;;;;;11.77;3.42;;;14.20;95.80;;;;;;5052939;28;19912;-48
2023/10/05 07:27:47;;;;;;;;;;;14.20;95.70;;;;;;5052788;28;20039;-47
2023/10/05 07:30:14;;;;;;;9.25;1.77;;;14.20;95.70;;;;;;5036247;28;19909;-48
2023/10/05 07:32:41;;;;;;;5.82;1.85;;;14.20;95.60;;;;;;5054631;28;20056;-49
2023/10/05 07:35:09;;;;;;;9.27;1.83;;;14.20;95.70;;;;;;5054191;28;20029;-48
2023/10/05 07:37:36;;;;;;;11.57;2.65;;;14.20;95.50;;;;;;5034301;28;20401;-48
2023/10/05 07:40:05;;;;;;;8.80;1.63;;;14.30;95.50;;;;;;5044789;28;20370;-48
2023/10/05 07:42:33;;;;;;;10.88;2.25;;;14.30;95.50;;;;;;5050569;28;20125;-50
2023/10/05 07:44:59;;;;;;;10.40;1.95;;;14.30;95.50;;;;;;5053081;28;20033;-50
2023/10/05 07:47:28;;;;;;;13.20;2.63;;;14.40;95.50;;;;;;5071216;28;20100;-56
2023/10/05 07:49:58;;;;;;;11.63;2.15;;;14.30;95.40;;;;;;5093252;28;20032;-48
2023/10/05 07:52:25;;;;;;;7.28;1.40;;;14.30;95.40;;;;;;5093303;28;20107;-53
2023/10/05 07:54:51;;;;;;;5.75;1.65;;;14.30;95.40;;;;;;5091325;28;20028;-49
2023/10/05 07:57:19;;;;;;;8.80;2.20;;;14.40;95.40;;;;;;5087609;28;20028;-51
2023/10/05 07:59:48;;;;;;;14.48;2.45;;;14.40;95.50;;;;;;5089547;28;20024;-53
2023/10/05 08:02:15;;;;;;;13.53;3.03;;;14.40;95.50;;;;;;5088530;28;20032;-53
2023/10/05 08:04:44;;;;;;;9.65;1.90;;;14.40;95.50;;;;;;5086305;28;20056;-55
2023/10/05 08:07:11;;;;;;;10.63;2.55;;;14.40;95.50;;;;;;5084862;28;20040;-53
2023/10/05 08:09:38;;;;;;;9.90;2.08;;;14.50;95.60;;;;;;5085417;28;20024;-54
2023/10/05 08:12:15;;;;;;;8.13;1.88;;;14.60;95.70;;;;;;5086698;28;20024;-48
2023/10/05 08:14:44;;;;;;;11.25;2.30;;;14.70;95.60;;;;;;5085006;28;20077;-51
2023/10/05 08:17:13;;;;;;;8.88;2.38;;;14.80;95.60;;;;;;5091938;28;20024;-47
2023/10/05 08:19:40;;;;;;;10.55;2.08;;;14.80;95.50;;;;;;5092025;28;20036;-51
2023/10/05 08:22:09;;;;;;;7.25;2.70;;;14.80;95.50;;;;;;5093510;28;20024;-50
2023/10/05 08:24:36;;;;;;;6.72;2.05;;;14.80;95.40;;;;;;5091484;28;20028;-49
2023/10/05 08:27:04;;;;;;;8.30;3.67;;;14.80;95.50;;;;;;5076302;28;20036;-47
2023/10/05 08:29:39;;;;;;;12.50;3.50;;;14.80;95.50;;;;;;5093921;28;20052;-48
2023/10/05 08:32:07;;;;;;;10.38;2.60;;;14.80;95.50;;;;;;5093448;28;20038;-49
2023/10/05 08:34:34;;;;;;;9.85;2.35;;;14.90;95.60;;;;;;5076175;28;20024;-51
2023/10/05 08:37:01;;;;;;;6.53;2.47;;;15.00;95.70;;;;;;5090177;28;20445;-46
2023/10/05 08:39:35;;;;;;;11.10;3.90;;;15.20;95.80;;;;;;5081780;28;20082;-52
2023/10/05 08:42:12;;;;;;;8.43;3.35;;;15.40;95.80;;;;;;5073132;28;20051;-51
2023/10/05 08:44:43;;;;;;;12.93;3.38;;;15.60;95.80;;;;;;5073498;28;20025;-48
2023/10/05 08:47:12;;;;;;;10.15;2.80;;;15.80;95.80;;;;;;5079050;28;20089;-49
2023/10/05 08:49:44;;;;;;;13.73;2.42;;;15.90;95.40;;;;;;5071934;28;20056;-48
2023/10/05 08:52:20;;;;;;;11.43;2.67;;;16.00;95.10;;;;;;5080156;28;20024;-50
2023/10/05 08:54:50;;;;;;;8.00;1.73;;;16.00;94.40;;;;;;5093145;28;20430;-48
2023/10/05 08:57:17;;;;;;;15.68;3.20;;;16.00;93.40;;;;;;5092443;28;20033;-49
2023/10/05 08:59:45;;;;;;;14.65;2.42;;;16.00;92.50;;;;;;5083328;28;20040;-48
2023/10/05 09:02:18;;;;;;;8.18;2.10;;;15.90;91.50;;;;;;5093167;28;20024;-50
2023/10/05 09:04:59;;;;;;;8.32;2.20;;;15.90;90.90;;;;;;5079039;28;20044;-51
2023/10/05 09:07:38;;;;;;;5.15;1.60;;;15.70;89.80;;;;;;5058091;28;20032;-48
2023/10/05 09:10:07;;;;;;;;;;;15.60;89.80;;;;;;5088140;28;20039;-47
2023/10/05 09:12:41;;;;;;;8.32;2.40;;;15.40;89.00;;;;;;5093054;28;19915;-49
2023/10/05 09:20:42;;;;;;;9.05;2.65;;;15.30;89.30;;;;;;5087592;28;20461;-50
2023/10/05 09:23:20;;;;;;;7.30;2.47;;;15.30;89.50;;;;;;5092071;28;20098;-52
2023/10/05 09:25:49;;;;;;;7.63;2.00;;;15.40;89.70;;;;;;5092330;28;20093;-48
2023/10/05 09:28:51;;;;;;;8.40;2.63;;;15.50;90.00;;;;;;5077534;28;20094;-49
2023/10/05 09:31:41;;;;;;;6.47;2.58;;;15.40;89.00;;;;;;5072581;28;20103;-50
2023/10/05 09:34:14;;;;;;;9.60;2.55;;;15.50;89.00;;;;;;5078971;28;20027;-50
2023/10/05 09:36:39;;;;;;;10.55;1.58;;;15.60;89.40;;;;;;5088966;28;20039;-50
2023/10/05 09:39:10;;;;;;;9.77;2.58;;;15.90;89.60;;;;;;5086041;28;20040;-47
2023/10/05 09:41:51;;;;;;;9.00;2.03;;;15.90;89.10;;;;;;5057979;28;20372;-47
2023/10/05 09:44:18;;;;;;;6.72;2.40;;;16.00;88.50;;;;;;5091402;28;20047;-51
2023/10/05 09:46:44;;;;;;;7.68;2.20;;;16.20;88.10;;;;;;5069503;28;20067;-48
2023/10/05 09:49:17;;;;;;;10.60;2.65;;;16.30;88.30;;;;;;5070841;28;20024;-48
2023/10/05 09:51:48;;;;;;;9.68;2.67;;;16.40;87.60;;;;;;5065421;28;20040;-51
2023/10/05 09:54:28;;;;;;;8.57;1.85;;;16.20;85.80;;;;;;5069020;28;20366;-47
2023/10/05 09:56:56;;;;;;;8.13;2.60;;;16.00;84.00;;;;;;5079533;28;20075;-50
2023/10/05 09:59:27;;;;;;;8.02;2.38;;;15.90;84.40;;;;;;5069673;28;20062;-48
2023/10/05 10:01:57;;;;;;;8.50;2.85;;;16.00;84.70;;;;;;5067935;28;20032;-49
2023/10/05 10:04:39;;;;;;;11.18;2.05;;;16.00;84.20;;;;;;5059749;28;20025;-48
2023/10/05 10:07:15;;;;;;;10.63;2.95;;;16.00;84.30;;;;;;5067986;28;20028;-48
2023/10/05 10:09:55;;;;;;;13.25;2.15;;;16.00;84.20;;;;;;5071639;28;20021;-51
2023/10/05 10:12:31;;;;;;;8.40;2.35;;;16.10;84.00;;;;;;5071407;28;20397;-49
2023/10/05 10:15:01;;;;;;;7.32;1.33;;;16.20;84.20;;;;;;5058779;28;20530;-50
2023/10/05 10:17:33;;;;;;;7.00;1.70;;;16.40;84.70;;;;;;5070598;28;20346;-48
2023/10/05 10:20:34;;;;;;;11.18;2.50;;;16.40;83.70;;;;;;5071736;28;20043;-50
2023/10/05 10:23:14;;;;;;;7.68;2.80;;;16.50;83.10;;;;;;5063537;28;20124;-51
2023/10/05 10:25:40;;;;;;;8.95;2.55;;;16.50;82.90;;;;;;5065505;28;20053;-48
2023/10/05 10:31:18;;;;;;;9.82;2.80;;;16.60;83.00;;;;;;5050186;28;20049;-51
2023/10/05 10:33:51;;;;;;;11.63;2.40;;;16.50;82.00;;;;;;5070785;28;20047;-52
2023/10/05 10:36:46;;;;;;;8.05;2.58;;;16.50;82.50;;;;;;5068069;28;20044;-49
2023/10/05 10:39:29;;;;;;;9.23;2.70;;;16.60;82.10;;;;;;5069018;28;20040;-50
2023/10/05 10:42:18;;;;;;;9.75;1.90;;;16.40;82.10;;;;;;5069734;28;20035;-47
2023/10/05 10:47:27;;;;;;;14.55;2.35;;;16.70;81.80;;;;;;5058170;28;20051;-50
2023/10/05 10:50:22;;;;;;;9.05;2.20;;;16.70;81.80;;;;;;5075431;28;20119;-48
2023/10/05 10:52:55;;;;;;;9.68;2.45;;;16.70;81.40;;;;;;5068384;28;20029;-49
2023/10/05 10:55:30;;;;;;;7.00;1.92;;;16.90;81.40;;;;;;5074489;28;20020;-48
2023/10/05 10:58:04;;;;;;;7.93;2.08;;;17.00;80.60;;;;;;5051849;28;20037;-51
2023/10/05 11:03:36;;;;;;;6.65;2.20;;;17.40;79.20;;;;;;5057679;28;20044;-51
2023/10/05 11:06:06;;;;;;;8.25;2.63;;;17.60;79.40;;;;;;5074434;28;20040;-51
2023/10/05 11:08:40;;;;;;;10.98;2.03;;;17.50;77.90;;;;;;5065386;28;20037;-48
2023/10/05 11:11:20;;;;;;;13.20;2.10;;;17.60;77.70;;;;;;5067792;28;20093;-50
2023/10/05 11:14:05;;;;;;;6.03;1.45;;;17.70;76.70;;;;;;5072523;28;20346;-52
2023/10/05 11:16:45;;;;;;;7.00;1.38;;;17.80;76.70;;;;;;5066965;28;20040;-49
2023/10/05 11:19:13;;;;;;;4.28;1.38;;;17.80;75.10;;;;;;5063021;28;20140;-53
2023/10/05 11:21:49;;;;;;;3.42;0.85;;;17.70;73.10;;;;;;5069991;28;20496;-52
2023/10/05 11:24:18;;;;;;;8.38;1.45;;;17.50;73.40;;;;;;5064088;28;20102;-48
2023/10/05 11:29:55;;;;;;;6.47;1.17;;;17.50;73.50;;;;;;5072694;28;20076;-51
2023/10/05 11:32:25;;;;;;;10.18;1.70;;;17.40;74.60;;;;;;5069480;28;20033;-53
2023/10/05 11:34:55;;;;;;;7.55;1.80;;;17.40;75.50;;;;;;5061463;28;20029;-50
2023/10/05 11:37:25;;;;;;;7.18;1.70;;;17.50;74.90;;;;;;5066990;28;20415;-51
2023/10/05 11:39:59;;;;;;;7.65;1.73;;;17.50;74.80;;;;;;5067523;28;20346;-53
2023/10/05 11:42:25;;;;;;;11.40;2.28;;;17.50;75.60;;;;;;5066950;28;20112;-52
2023/10/05 11:44:59;;;;;;;9.85;1.70;;;17.50;75.40;;;;;;5080349;28;20468;-51
2023/10/05 11:47:35;;;;;;;7.38;1.88;;;17.60;76.10;;;;;;5080925;28;20044;-52
2023/10/05 11:50:25;;;;;;;10.50;1.58;;;17.70;75.70;;;;;;5088725;28;20119;-54
2023/10/05 11:52:55;;;;;;;4.55;1.65;;;17.70;74.10;;;;;;5090047;28;20107;-53
2023/10/05 11:55:22;;;;;;;6.05;1.98;;;17.80;74.00;;;;;;5085852;28;20033;-51
2023/10/05 11:57:48;;;;;;;6.03;1.73;;;17.80;73.90;;;;;;5089975;28;20028;-52
2023/10/05 12:00:16;;;;;;;7.15;1.38;;;17.70;74.80;;;;;;5083232;28;20028;-50
2023/10/05 12:02:46;;;;;;;7.43;1.75;;;17.90;76.10;;;;;;5074113;28;20119;-53
2023/10/05 12:05:15;;;;;;;5.13;1.17;;;17.90;75.50;;;;;;5067391;28;20478;-53
2023/10/05 12:07:45;;;;;;;6.75;1.48;;;17.80;73.00;;;;;;5090819;28;20032;-52
2023/10/05 12:10:14;;;;;;;5.85;1.45;;;17.70;73.80;;;;;;5085592;28;20540;-54
2023/10/05 12:12:41;;;;;;;5.40;1.52;;;17.50;74.30;;;;;;5088492;28;20040;-53
2023/10/05 12:15:17;;;;;;;6.20;1.65;;;17.40;74.00;;;;;;5080373;28;20029;-50
2023/10/05 12:17:58;;;;;;;6.43;1.80;;;17.40;74.60;;;;;;5089180;28;20032;-53
2023/10/05 12:20:27;;;;;;;4.47;1.30;;;17.20;74.10;;;;;;5091077;28;20036;-54
2023/10/05 12:22:59;;;;;;;7.57;2.30;;;17.20;75.10;;;;;;5086874;28;20182;-49
2023/10/05 12:25:27;;;;;;;7.85;1.83;;;17.30;75.00;;;;;;5091434;28;20039;-53
2023/10/05 12:27:53;;;;;;;5.93;2.10;;;17.50;76.20;;;;;;5087580;28;20032;-54
2023/10/05 12:30:21;;;;;;;6.40;1.30;;;17.70;75.60;;;;;;5090564;28;20115;-51
2023/10/05 12:32:51;;;;;;;5.43;1.92;;;17.70;74.60;;;;;;5080818;28;20048;-50
2023/10/05 12:35:21;;;;;;;6.10;1.67;;;17.90;75.20;;;;;;5086804;28;20081;-53
2023/10/05 12:37:49;;;;;;;6.85;1.95;;;17.80;75.20;;;;;;5090583;28;20028;-51
2023/10/05 12:40:26;;;;;;;5.32;2.22;;;17.70;74.00;;;;;;5082497;28;20061;-53
2023/10/05 12:42:56;;;;;;;9.20;1.42;;;17.60;74.60;;;;;;5091761;28;20047;-52
2023/10/05 12:45:24;;;;;;;11.77;2.50;;;17.70;74.00;;;;;;5091849;28;20032;-50
2023/10/05 12:47:58;;;;;;;9.05;1.73;;;17.80;74.40;;;;;;5093522;28;20052;-49
2023/10/05 12:50:27;;;;;;;5.65;1.63;;;17.90;75.80;;;;;;5085815;28;20043;-49
2023/10/05 12:52:56;;;;;;;6.72;1.90;;;17.90;74.10;;;;;;5060322;28;20054;-49
2023/10/05 12:55:29;;;;;;;9.02;2.00;;;17.80;74.60;;;;;;5084324;28;20128;-53
2023/10/05 12:58:08;;;;;;;6.28;1.48;;;17.80;75.10;;;;;;5058400;28;20107;-51
2023/10/05 13:00:40;;;;;;;6.85;1.25;;;17.90;73.60;;;;;;5075345;28;20044;-48
2023/10/05 13:03:27;;;;;;;5.97;1.58;;;17.80;73.80;;;;;;5092582;28;20078;-53
2023/10/05 13:05:56;;;;;;;6.28;1.55;;;17.60;73.70;;;;;;5085988;28;20103;-52
2023/10/05 13:08:22;;;;;;;6.90;1.52;;;17.50;75.10;;;;;;5089391;28;20422;-48
2023/10/05 13:10:48;;;;;;;3.80;1.20;;;17.40;75.30;;;;;;5082098;28;20039;-51
2023/10/05 13:13:21;;;;;;;7.35;1.70;;;17.40;76.00;;;;;;5077260;28;20020;-49
2023/10/05 13:15:50;;;;;;;8.05;1.48;;;17.40;76.80;;;;;;5083372;28;20020;-49
2023/10/05 13:18:18;;;;;;;8.52;2.22;;;17.40;76.50;;;;;;5086795;28;20100;-51
2023/10/05 13:20:54;;;;;;;6.88;1.77;;;17.10;75.00;;;;;;5081175;28;20040;-49
2023/10/05 13:23:25;;;;;;;8.13;1.67;;;17.00;74.90;;;;;;5088722;28;20058;-55
2023/10/05 13:25:55;;;;;;;6.95;1.45;;;17.10;76.00;;;;;;5091517;28;20036;-50
2023/10/05 13:28:24;;;;;;;6.65;1.77;;;17.20;75.10;;;;;;5084627;28;20111;-53
2023/10/05 13:30:55;;;;;;;7.07;1.27;;;17.10;74.80;;;;;;5082068;28;20103;-54
2023/10/05 13:33:34;;;;;;;9.18;2.10;;;17.00;75.00;;;;;;5087311;28;20119;-51
2023/10/05 13:36:06;;;;;;;7.18;1.40;;;16.90;74.70;;;;;;5076192;28;20028;-50
2023/10/05 13:38:36;;;;;;;7.82;1.42;;;16.90;75.70;;;;;;5090380;28;20345;-54
2023/10/05 13:41:20;;;;;;;3.70;1.10;;;17.00;76.00;;;;;;5088149;28;20058;-54
2023/10/05 13:43:49;;;;;;;7.35;1.50;;;17.10;73.60;;;;;;5070190;28;20036;-50
2023/10/05 13:46:22;;;;;;;4.68;1.50;;;17.20;72.50;;;;;;5063906;28;20043;-48
2023/10/05 13:48:54;;;;;;;5.63;1.33;;;17.20;73.20;;;;;;5072298;28;20090;-52
2023/10/05 13:51:21;;;;;;;8.27;1.60;;;17.20;73.60;;;;;;5071995;28;20047;-54